バマコ の空港の天気 - METARとTAF

バマコ・セヌー国際空港 ( GABS / BKO ) - マリ バマコ
飛行場実況気象(Metar)
観測時間01/16 19:30 GMT (01/16 19:30 UTC)
風向・風速東北東 5m/s
視程10km以上
天気現象
なし
気温29℃
湿度18%
気圧1016hPa
METARGABS 161930Z 06010KT CAVOK 29/02 Q1016 NOSIG
過去の天気等 Google飛行場航空写真 Wunderground天気予報

過去48時間のMETAR

飛行場予報(TAF)
発表時間: 1/16 17:00 GMT (1/16 17:00 UTC)
予報対象時間: 16日18時 GMT ~ 18日0時 GMT
風向・風速北東 5m/s
視程6000m
なし
TAF GABS 161700Z 1618/1724 04010KT 6000 NSC